sensor_id;sensor_type;location;lat;lon;timestamp;temperature;humidity
8872;DHT22;4472;52.092;9.820;2022-12-07T00:01:52;4.60;99.90
8872;DHT22;4472;52.092;9.820;2022-12-07T00:04:40;4.50;99.90
8872;DHT22;4472;52.092;9.820;2022-12-07T00:07:27;4.60;99.90
8872;DHT22;4472;52.092;9.820;2022-12-07T00:10:14;4.60;99.90
8872;DHT22;4472;52.092;9.820;2022-12-07T00:13:03;4.60;99.90
8872;DHT22;4472;52.092;9.820;2022-12-07T00:15:50;4.60;99.90
8872;DHT22;4472;52.092;9.820;2022-12-07T00:18:39;4.60;99.90
8872;DHT22;4472;52.092;9.820;2022-12-07T00:21:29;4.60;99.90
8872;DHT22;4472;52.092;9.820;2022-12-07T00:24:16;4.80;99.90
8872;DHT22;4472;52.092;9.820;2022-12-07T00:27:03;4.50;99.90
8872;DHT22;4472;52.092;9.820;2022-12-07T00:29:52;4.50;99.90
8872;DHT22;4472;52.092;9.820;2022-12-07T00:32:39;4.50;99.90
8872;DHT22;4472;52.092;9.820;2022-12-07T00:35:26;4.50;99.90
8872;DHT22;4472;52.092;9.820;2022-12-07T00:38:14;4.50;99.90
8872;DHT22;4472;52.092;9.820;2022-12-07T00:41:03;4.60;99.90
8872;DHT22;4472;52.092;9.820;2022-12-07T00:43:51;4.50;99.90
8872;DHT22;4472;52.092;9.820;2022-12-07T00:46:40;4.50;99.90
8872;DHT22;4472;52.092;9.820;2022-12-07T00:49:27;4.50;99.90
8872;DHT22;4472;52.092;9.820;2022-12-07T00:52:15;4.60;99.90
8872;DHT22;4472;52.092;9.820;2022-12-07T00:55:02;4.60;99.90
8872;DHT22;4472;52.092;9.820;2022-12-07T00:57:50;4.60;99.90
8872;DHT22;4472;52.092;9.820;2022-12-07T01:00:39;4.70;99.90
8872;DHT22;4472;52.092;9.820;2022-12-07T01:03:28;4.70;99.90
8872;DHT22;4472;52.092;9.820;2022-12-07T01:06:16;4.70;99.90
8872;DHT22;4472;52.092;9.820;2022-12-07T01:09:04;4.70;99.90
8872;DHT22;4472;52.092;9.820;2022-12-07T01:11:51;4.70;99.90
8872;DHT22;4472;52.092;9.820;2022-12-07T01:14:39;4.70;99.90
8872;DHT22;4472;52.092;9.820;2022-12-07T01:17:29;4.70;99.90
8872;DHT22;4472;52.092;9.820;2022-12-07T01:20:18;4.70;99.90
8872;DHT22;4472;52.092;9.820;2022-12-07T01:23:05;4.70;99.90
8872;DHT22;4472;52.092;9.820;2022-12-07T01:25:54;4.70;99.90
8872;DHT22;4472;52.092;9.820;2022-12-07T01:28:42;4.70;99.90
8872;DHT22;4472;52.092;9.820;2022-12-07T01:31:29;4.70;99.90
8872;DHT22;4472;52.092;9.820;2022-12-07T01:34:17;4.70;99.90
8872;DHT22;4472;52.092;9.820;2022-12-07T01:37:06;4.70;99.90
8872;DHT22;4472;52.092;9.820;2022-12-07T01:39:53;4.70;99.90
8872;DHT22;4472;52.092;9.820;2022-12-07T01:42:40;4.70;99.90
8872;DHT22;4472;52.092;9.820;2022-12-07T01:45:39;4.70;99.90
8872;DHT22;4472;52.092;9.820;2022-12-07T01:48:30;4.70;99.90
8872;DHT22;4472;52.092;9.820;2022-12-07T01:51:20;4.70;99.90
8872;DHT22;4472;52.092;9.820;2022-12-07T01:54:10;4.70;99.90
8872;DHT22;4472;52.092;9.820;2022-12-07T01:56:58;4.70;99.90
8872;DHT22;4472;52.092;9.820;2022-12-07T01:59:47;4.70;99.90
8872;DHT22;4472;52.092;9.820;2022-12-07T02:02:43;4.70;99.90
8872;DHT22;4472;52.092;9.820;2022-12-07T02:05:31;4.70;99.90
8872;DHT22;4472;52.092;9.820;2022-12-07T02:08:20;4.70;99.90
8872;DHT22;4472;52.092;9.820;2022-12-07T02:11:09;4.70;99.90
8872;DHT22;4472;52.092;9.820;2022-12-07T02:13:57;4.70;99.90
8872;DHT22;4472;52.092;9.820;2022-12-07T02:16:53;4.80;99.90
8872;DHT22;4472;52.092;9.820;2022-12-07T02:20:06;4.70;99.90
8872;DHT22;4472;52.092;9.820;2022-12-07T02:30:04;4.70;99.90
8872;DHT22;4472;52.092;9.820;2022-12-07T02:33:00;4.80;99.90
8872;DHT22;4472;52.092;9.820;2022-12-07T02:35:54;4.80;99.90
8872;DHT22;4472;52.092;9.820;2022-12-07T02:38:47;4.80;99.90
8872;DHT22;4472;52.092;9.820;2022-12-07T02:41:42;4.90;99.90
8872;DHT22;4472;52.092;9.820;2022-12-07T02:44:30;5.60;99.90
8872;DHT22;4472;52.092;9.820;2022-12-07T02:47:25;4.90;99.90
8872;DHT22;4472;52.092;9.820;2022-12-07T02:50:13;4.90;99.90
8872;DHT22;4472;52.092;9.820;2022-12-07T02:53:00;4.90;99.90
8872;DHT22;4472;52.092;9.820;2022-12-07T02:55:48;5.00;99.90
8872;DHT22;4472;52.092;9.820;2022-12-07T02:58:47;4.90;99.90
8872;DHT22;4472;52.092;9.820;2022-12-07T03:01:41;4.90;99.90
8872;DHT22;4472;52.092;9.820;2022-12-07T03:04:43;4.90;99.90
8872;DHT22;4472;52.092;9.820;2022-12-07T03:07:39;4.80;99.90
8872;DHT22;4472;52.092;9.820;2022-12-07T03:10:36;4.70;99.90
8872;DHT22;4472;52.092;9.820;2022-12-07T03:13:32;4.60;99.90
8872;DHT22;4472;52.092;9.820;2022-12-07T03:16:22;4.50;99.90
8872;DHT22;4472;52.092;9.820;2022-12-07T03:19:15;4.40;99.90
8872;DHT22;4472;52.092;9.820;2022-12-07T03:22:07;6.90;99.90
8872;DHT22;4472;52.092;9.820;2022-12-07T03:24:58;5.90;99.90
8872;DHT22;4472;52.092;9.820;2022-12-07T03:27:51;4.10;99.90
8872;DHT22;4472;52.092;9.820;2022-12-07T03:30:45;4.10;99.90
8872;DHT22;4472;52.092;9.820;2022-12-07T03:33:38;4.00;99.90
8872;DHT22;4472;52.092;9.820;2022-12-07T03:36:30;4.00;99.90
8872;DHT22;4472;52.092;9.820;2022-12-07T03:39:26;4.00;99.90
8872;DHT22;4472;52.092;9.820;2022-12-07T03:42:17;4.00;99.90
8872;DHT22;4472;52.092;9.820;2022-12-07T03:45:06;4.00;99.90
8872;DHT22;4472;52.092;9.820;2022-12-07T03:48:01;4.00;99.90
8872;DHT22;4472;52.092;9.820;2022-12-07T03:50:53;4.00;99.90
8872;DHT22;4472;52.092;9.820;2022-12-07T03:53:46;3.90;99.90
8872;DHT22;4472;52.092;9.820;2022-12-07T03:56:37;3.90;99.90
8872;DHT22;4472;52.092;9.820;2022-12-07T03:59:27;3.90;99.90
8872;DHT22;4472;52.092;9.820;2022-12-07T04:02:16;3.90;99.90
8872;DHT22;4472;52.092;9.820;2022-12-07T04:05:04;3.90;99.90
8872;DHT22;4472;52.092;9.820;2022-12-07T04:07:51;3.90;99.90
8872;DHT22;4472;52.092;9.820;2022-12-07T04:10:38;3.90;99.90
8872;DHT22;4472;52.092;9.820;2022-12-07T04:13:27;3.90;99.90
8872;DHT22;4472;52.092;9.820;2022-12-07T04:16:14;3.90;99.90
8872;DHT22;4472;52.092;9.820;2022-12-07T04:19:01;3.90;99.90
8872;DHT22;4472;52.092;9.820;2022-12-07T04:21:49;3.90;99.90
8872;DHT22;4472;52.092;9.820;2022-12-07T04:24:36;3.90;99.90
8872;DHT22;4472;52.092;9.820;2022-12-07T04:27:23;4.00;99.90
8872;DHT22;4472;52.092;9.820;2022-12-07T04:30:15;4.00;99.90
8872;DHT22;4472;52.092;9.820;2022-12-07T04:33:02;4.00;99.90
8872;DHT22;4472;52.092;9.820;2022-12-07T04:35:49;4.00;99.90
8872;DHT22;4472;52.092;9.820;2022-12-07T04:38:37;4.10;99.90
8872;DHT22;4472;52.092;9.820;2022-12-07T04:41:24;4.10;99.90
8872;DHT22;4472;52.092;9.820;2022-12-07T04:44:14;4.10;99.90
8872;DHT22;4472;52.092;9.820;2022-12-07T04:47:03;4.20;99.90
8872;DHT22;4472;52.092;9.820;2022-12-07T04:49:51;4.20;99.90
8872;DHT22;4472;52.092;9.820;2022-12-07T04:52:38;4.20;99.90
8872;DHT22;4472;52.092;9.820;2022-12-07T04:55:25;4.30;99.90
8872;DHT22;4472;52.092;9.820;2022-12-07T04:58:12;4.30;99.90
8872;DHT22;4472;52.092;9.820;2022-12-07T05:01:00;4.20;99.90
8872;DHT22;4472;52.092;9.820;2022-12-07T05:03:48;4.20;99.90
8872;DHT22;4472;52.092;9.820;2022-12-07T05:06:36;4.20;99.90
8872;DHT22;4472;52.092;9.820;2022-12-07T05:09:23;4.20;99.90
8872;DHT22;4472;52.092;9.820;2022-12-07T05:12:10;4.20;99.90
8872;DHT22;4472;52.092;9.820;2022-12-07T05:14:58;4.10;99.90
8872;DHT22;4472;52.092;9.820;2022-12-07T05:17:45;4.10;99.90
8872;DHT22;4472;52.092;9.820;2022-12-07T05:20:34;4.00;99.90
8872;DHT22;4472;52.092;9.820;2022-12-07T05:23:21;4.00;99.90
8872;DHT22;4472;52.092;9.820;2022-12-07T05:26:08;4.00;99.90
8872;DHT22;4472;52.092;9.820;2022-12-07T05:28:56;4.00;99.90
8872;DHT22;4472;52.092;9.820;2022-12-07T05:31:44;4.00;99.90
8872;DHT22;4472;52.092;9.820;2022-12-07T05:34:31;4.00;99.90
8872;DHT22;4472;52.092;9.820;2022-12-07T05:37:20;4.10;99.90
8872;DHT22;4472;52.092;9.820;2022-12-07T05:40:08;4.30;99.90
8872;DHT22;4472;52.092;9.820;2022-12-07T05:42:56;4.10;99.90
8872;DHT22;4472;52.092;9.820;2022-12-07T05:45:43;4.10;99.90
8872;DHT22;4472;52.092;9.820;2022-12-07T05:48:30;4.20;99.90
8872;DHT22;4472;52.092;9.820;2022-12-07T05:51:18;4.20;99.90
8872;DHT22;4472;52.092;9.820;2022-12-07T05:54:06;4.20;99.90
8872;DHT22;4472;52.092;9.820;2022-12-07T05:56:54;4.30;99.90
8872;DHT22;4472;52.092;9.820;2022-12-07T05:59:41;4.30;99.90
8872;DHT22;4472;52.092;9.820;2022-12-07T06:02:28;4.30;99.90
8872;DHT22;4472;52.092;9.820;2022-12-07T06:05:16;4.30;99.90
8872;DHT22;4472;52.092;9.820;2022-12-07T06:08:03;4.30;99.90
8872;DHT22;4472;52.092;9.820;2022-12-07T06:10:52;4.30;99.90
8872;DHT22;4472;52.092;9.820;2022-12-07T06:13:59;4.40;99.90
8872;DHT22;4472;52.092;9.820;2022-12-07T06:16:45;4.40;99.90
8872;DHT22;4472;52.092;9.820;2022-12-07T06:19:33;4.40;99.90
8872;DHT22;4472;52.092;9.820;2022-12-07T06:22:21;4.50;99.90
8872;DHT22;4472;52.092;9.820;2022-12-07T06:25:08;4.50;99.90
8872;DHT22;4472;52.092;9.820;2022-12-07T06:27:57;4.50;99.90
8872;DHT22;4472;52.092;9.820;2022-12-07T06:30:44;4.50;99.90
8872;DHT22;4472;52.092;9.820;2022-12-07T06:33:32;4.50;99.90
8872;DHT22;4472;52.092;9.820;2022-12-07T06:36:19;4.50;99.90
8872;DHT22;4472;52.092;9.820;2022-12-07T06:39:07;4.50;99.90
8872;DHT22;4472;52.092;9.820;2022-12-07T06:41:55;4.50;99.90
8872;DHT22;4472;52.092;9.820;2022-12-07T06:44:43;4.50;99.90
8872;DHT22;4472;52.092;9.820;2022-12-07T06:47:31;4.50;99.90
8872;DHT22;4472;52.092;9.820;2022-12-07T06:50:18;4.50;99.90
8872;DHT22;4472;52.092;9.820;2022-12-07T06:53:05;4.50;99.90
8872;DHT22;4472;52.092;9.820;2022-12-07T06:55:52;4.50;99.90
8872;DHT22;4472;52.092;9.820;2022-12-07T06:58:40;4.50;99.90
8872;DHT22;4472;52.092;9.820;2022-12-07T07:01:29;4.50;99.90
8872;DHT22;4472;52.092;9.820;2022-12-07T07:04:16;4.50;99.90
8872;DHT22;4472;52.092;9.820;2022-12-07T07:07:03;4.50;99.90
8872;DHT22;4472;52.092;9.820;2022-12-07T07:09:50;4.50;99.90
8872;DHT22;4472;52.092;9.820;2022-12-07T07:12:38;4.50;99.90
8872;DHT22;4472;52.092;9.820;2022-12-07T07:15:25;4.50;99.90
8872;DHT22;4472;52.092;9.820;2022-12-07T07:18:14;4.50;99.90
8872;DHT22;4472;52.092;9.820;2022-12-07T07:21:01;4.50;99.90
8872;DHT22;4472;52.092;9.820;2022-12-07T07:23:48;4.50;99.90
8872;DHT22;4472;52.092;9.820;2022-12-07T07:26:36;4.50;99.90
8872;DHT22;4472;52.092;9.820;2022-12-07T07:29:23;4.50;99.90
8872;DHT22;4472;52.092;9.820;2022-12-07T07:32:10;4.50;99.90
8872;DHT22;4472;52.092;9.820;2022-12-07T07:34:59;4.50;99.90
8872;DHT22;4472;52.092;9.820;2022-12-07T07:37:46;4.50;99.90
8872;DHT22;4472;52.092;9.820;2022-12-07T07:40:34;4.40;99.90
8872;DHT22;4472;52.092;9.820;2022-12-07T07:43:21;4.40;99.90
8872;DHT22;4472;52.092;9.820;2022-12-07T07:46:08;4.40;99.90
8872;DHT22;4472;52.092;9.820;2022-12-07T07:48:56;4.40;99.90
8872;DHT22;4472;52.092;9.820;2022-12-07T07:51:44;4.40;99.90
8872;DHT22;4472;52.092;9.820;2022-12-07T07:54:31;5.40;99.90
8872;DHT22;4472;52.092;9.820;2022-12-07T07:57:19;4.30;99.90
8872;DHT22;4472;52.092;9.820;2022-12-07T08:00:08;4.30;99.90
8872;DHT22;4472;52.092;9.820;2022-12-07T08:02:56;4.40;99.90
8872;DHT22;4472;52.092;9.820;2022-12-07T08:05:43;4.40;99.90
8872;DHT22;4472;52.092;9.820;2022-12-07T08:08:32;4.40;99.90
8872;DHT22;4472;52.092;9.820;2022-12-07T08:11:19;4.40;99.90
8872;DHT22;4472;52.092;9.820;2022-12-07T08:14:07;4.40;99.90
8872;DHT22;4472;52.092;9.820;2022-12-07T08:16:54;4.40;99.90
8872;DHT22;4472;52.092;9.820;2022-12-07T08:19:41;4.50;99.90
8872;DHT22;4472;52.092;9.820;2022-12-07T08:22:28;4.50;99.90
8872;DHT22;4472;52.092;9.820;2022-12-07T08:25:17;4.70;99.90
8872;DHT22;4472;52.092;9.820;2022-12-07T08:28:05;4.50;99.90
8872;DHT22;4472;52.092;9.820;2022-12-07T08:30:52;4.60;99.90
8872;DHT22;4472;52.092;9.820;2022-12-07T08:33:45;5.00;99.90
8872;DHT22;4472;52.092;9.820;2022-12-07T08:36:33;4.60;99.90
8872;DHT22;4472;52.092;9.820;2022-12-07T08:39:20;4.70;99.90
8872;DHT22;4472;52.092;9.820;2022-12-07T08:42:08;4.70;99.90
8872;DHT22;4472;52.092;9.820;2022-12-07T08:44:56;4.90;99.90
8872;DHT22;4472;52.092;9.820;2022-12-07T08:47:46;4.80;99.90
8872;DHT22;4472;52.092;9.820;2022-12-07T08:50:36;4.70;99.90
8872;DHT22;4472;52.092;9.820;2022-12-07T08:53:23;4.70;99.90
8872;DHT22;4472;52.092;9.820;2022-12-07T08:56:11;4.70;99.90
8872;DHT22;4472;52.092;9.820;2022-12-07T08:59:00;4.80;99.90
8872;DHT22;4472;52.092;9.820;2022-12-07T09:01:47;4.90;99.90
8872;DHT22;4472;52.092;9.820;2022-12-07T09:04:34;4.90;99.90
8872;DHT22;4472;52.092;9.820;2022-12-07T09:07:21;5.00;99.90
8872;DHT22;4472;52.092;9.820;2022-12-07T09:10:10;5.00;99.90
8872;DHT22;4472;52.092;9.820;2022-12-07T09:12:57;5.10;99.90
8872;DHT22;4472;52.092;9.820;2022-12-07T09:15:47;5.50;99.90
8872;DHT22;4472;52.092;9.820;2022-12-07T09:18:35;5.10;99.90
8872;DHT22;4472;52.092;9.820;2022-12-07T09:21:22;5.10;99.90
8872;DHT22;4472;52.092;9.820;2022-12-07T09:24:09;5.10;99.90
8872;DHT22;4472;52.092;9.820;2022-12-07T09:26:56;5.10;99.90
8872;DHT22;4472;52.092;9.820;2022-12-07T09:29:43;5.10;99.90
8872;DHT22;4472;52.092;9.820;2022-12-07T09:32:32;5.10;99.90
8872;DHT22;4472;52.092;9.820;2022-12-07T09:35:19;5.10;99.90
8872;DHT22;4472;52.092;9.820;2022-12-07T09:38:07;5.20;99.90
8872;DHT22;4472;52.092;9.820;2022-12-07T09:40:54;5.20;99.90
8872;DHT22;4472;52.092;9.820;2022-12-07T09:43:42;5.20;99.90
8872;DHT22;4472;52.092;9.820;2022-12-07T09:46:33;5.20;99.90
8872;DHT22;4472;52.092;9.820;2022-12-07T09:49:24;5.20;99.90
8872;DHT22;4472;52.092;9.820;2022-12-07T09:52:19;5.30;99.90
8872;DHT22;4472;52.092;9.820;2022-12-07T09:55:11;5.20;99.90
8872;DHT22;4472;52.092;9.820;2022-12-07T09:57:59;5.20;99.90
8872;DHT22;4472;52.092;9.820;2022-12-07T10:00:46;5.30;99.90
8872;DHT22;4472;52.092;9.820;2022-12-07T10:03:35;5.20;99.90
8872;DHT22;4472;52.092;9.820;2022-12-07T10:06:24;5.20;99.90
8872;DHT22;4472;52.092;9.820;2022-12-07T10:09:12;5.10;99.90
8872;DHT22;4472;52.092;9.820;2022-12-07T10:12:02;5.10;99.90
8872;DHT22;4472;52.092;9.820;2022-12-07T10:14:54;5.00;99.90
8872;DHT22;4472;52.092;9.820;2022-12-07T10:17:47;5.00;99.90
8872;DHT22;4472;52.092;9.820;2022-12-07T10:20:35;5.00;99.90
8872;DHT22;4472;52.092;9.820;2022-12-07T10:23:24;5.00;99.90
8872;DHT22;4472;52.092;9.820;2022-12-07T10:26:27;5.10;99.90
8872;DHT22;4472;52.092;9.820;2022-12-07T10:29:18;5.20;99.90
8872;DHT22;4472;52.092;9.820;2022-12-07T10:32:27;5.20;99.90
8872;DHT22;4472;52.092;9.820;2022-12-07T10:35:23;5.30;99.90
8872;DHT22;4472;52.092;9.820;2022-12-07T10:38:16;5.20;99.90
8872;DHT22;4472;52.092;9.820;2022-12-07T10:41:07;5.30;99.90
8872;DHT22;4472;52.092;9.820;2022-12-07T10:43:57;5.30;99.90
8872;DHT22;4472;52.092;9.820;2022-12-07T10:47:25;5.40;99.90
8872;DHT22;4472;52.092;9.820;2022-12-07T10:50:41;5.40;99.90
8872;DHT22;4472;52.092;9.820;2022-12-07T10:53:44;5.30;99.90
8872;DHT22;4472;52.092;9.820;2022-12-07T10:56:54;5.30;99.90
8872;DHT22;4472;52.092;9.820;2022-12-07T10:59:53;5.20;99.90
8872;DHT22;4472;52.092;9.820;2022-12-07T11:03:05;5.20;99.90
8872;DHT22;4472;52.092;9.820;2022-12-07T11:06:02;5.20;99.90
8872;DHT22;4472;52.092;9.820;2022-12-07T11:09:21;5.20;99.90
8872;DHT22;4472;52.092;9.820;2022-12-07T11:12:16;5.20;99.90
8872;DHT22;4472;52.092;9.820;2022-12-07T11:15:15;5.20;99.90
8872;DHT22;4472;52.092;9.820;2022-12-07T11:18:13;5.10;99.90
8872;DHT22;4472;52.092;9.820;2022-12-07T11:21:07;5.00;99.90
8872;DHT22;4472;52.092;9.820;2022-12-07T11:24:01;4.90;99.90
8872;DHT22;4472;52.092;9.820;2022-12-07T11:27:06;4.90;99.90
8872;DHT22;4472;52.092;9.820;2022-12-07T11:30:12;4.80;99.90
8872;DHT22;4472;52.092;9.820;2022-12-07T11:33:10;4.80;99.90
8872;DHT22;4472;52.092;9.820;2022-12-07T11:36:05;4.80;99.90
8872;DHT22;4472;52.092;9.820;2022-12-07T11:38:57;4.90;99.90
8872;DHT22;4472;52.092;9.820;2022-12-07T11:41:47;5.00;99.90
8872;DHT22;4472;52.092;9.820;2022-12-07T11:44:40;5.10;99.90
8872;DHT22;4472;52.092;9.820;2022-12-07T11:47:38;5.30;99.90
8872;DHT22;4472;52.092;9.820;2022-12-07T11:50:33;5.50;99.90
8872;DHT22;4472;52.092;9.820;2022-12-07T11:53:26;5.60;99.90
8872;DHT22;4472;52.092;9.820;2022-12-07T11:56:16;5.70;99.90
8872;DHT22;4472;52.092;9.820;2022-12-07T11:59:10;5.90;99.90
8872;DHT22;4472;52.092;9.820;2022-12-07T12:02:07;6.00;99.90
8872;DHT22;4472;52.092;9.820;2022-12-07T12:05:07;6.10;99.90
8872;DHT22;4472;52.092;9.820;2022-12-07T12:08:05;6.10;99.90
8872;DHT22;4472;52.092;9.820;2022-12-07T12:11:02;6.00;99.90
8872;DHT22;4472;52.092;9.820;2022-12-07T12:14:08;6.10;99.90
8872;DHT22;4472;52.092;9.820;2022-12-07T12:17:34;6.00;99.90
8872;DHT22;4472;52.092;9.820;2022-12-07T12:20:30;6.20;99.90
8872;DHT22;4472;52.092;9.820;2022-12-07T12:23:20;6.10;99.90
8872;DHT22;4472;52.092;9.820;2022-12-07T12:26:16;6.00;99.90
8872;DHT22;4472;52.092;9.820;2022-12-07T12:29:06;6.10;99.90
8872;DHT22;4472;52.092;9.820;2022-12-07T12:32:13;6.20;99.90
8872;DHT22;4472;52.092;9.820;2022-12-07T12:38:29;6.10;99.90
8872;DHT22;4472;52.092;9.820;2022-12-07T12:45:19;6.10;99.90
8872;DHT22;4472;52.092;9.820;2022-12-07T12:48:28;6.20;99.90
8872;DHT22;4472;52.092;9.820;2022-12-07T12:51:38;6.30;99.90
8872;DHT22;4472;52.092;9.820;2022-12-07T12:54:28;6.30;99.90
8872;DHT22;4472;52.092;9.820;2022-12-07T12:57:21;6.20;99.90
8872;DHT22;4472;52.092;9.820;2022-12-07T13:00:17;6.10;99.90
8872;DHT22;4472;52.092;9.820;2022-12-07T13:03:04;6.00;99.90
8872;DHT22;4472;52.092;9.820;2022-12-07T13:06:20;6.00;99.90
8872;DHT22;4472;52.092;9.820;2022-12-07T13:09:22;6.00;99.90
8872;DHT22;4472;52.092;9.820;2022-12-07T13:12:14;6.00;99.90
8872;DHT22;4472;52.092;9.820;2022-12-07T13:15:22;5.90;99.90
8872;DHT22;4472;52.092;9.820;2022-12-07T13:18:34;5.90;99.90
8872;DHT22;4472;52.092;9.820;2022-12-07T13:21:41;5.80;99.90
8872;DHT22;4472;52.092;9.820;2022-12-07T13:24:31;5.80;99.90
8872;DHT22;4472;52.092;9.820;2022-12-07T13:27:21;5.90;99.90
8872;DHT22;4472;52.092;9.820;2022-12-07T13:30:14;5.90;99.90
8872;DHT22;4472;52.092;9.820;2022-12-07T13:33:03;5.90;99.90
8872;DHT22;4472;52.092;9.820;2022-12-07T13:35:54;5.90;99.90
8872;DHT22;4472;52.092;9.820;2022-12-07T13:38:49;5.80;99.90
8872;DHT22;4472;52.092;9.820;2022-12-07T13:41:36;5.80;99.90
8872;DHT22;4472;52.092;9.820;2022-12-07T13:44:34;5.90;99.90
8872;DHT22;4472;52.092;9.820;2022-12-07T13:47:26;6.00;99.90
8872;DHT22;4472;52.092;9.820;2022-12-07T13:50:23;6.00;99.90
8872;DHT22;4472;52.092;9.820;2022-12-07T13:53:12;6.00;99.90
8872;DHT22;4472;52.092;9.820;2022-12-07T13:56:01;5.90;99.90
8872;DHT22;4472;52.092;9.820;2022-12-07T13:58:58;5.90;99.90
8872;DHT22;4472;52.092;9.820;2022-12-07T14:01:47;5.80;99.90
8872;DHT22;4472;52.092;9.820;2022-12-07T14:04:36;5.80;99.90
8872;DHT22;4472;52.092;9.820;2022-12-07T14:07:25;5.80;99.90
8872;DHT22;4472;52.092;9.820;2022-12-07T14:10:23;5.70;99.90
8872;DHT22;4472;52.092;9.820;2022-12-07T14:13:28;5.70;99.90
8872;DHT22;4472;52.092;9.820;2022-12-07T14:16:24;5.70;99.90
8872;DHT22;4472;52.092;9.820;2022-12-07T14:19:43;5.70;99.90
8872;DHT22;4472;52.092;9.820;2022-12-07T14:22:33;5.60;99.90
8872;DHT22;4472;52.092;9.820;2022-12-07T14:25:22;5.60;99.90
8872;DHT22;4472;52.092;9.820;2022-12-07T14:28:25;5.60;99.90
8872;DHT22;4472;52.092;9.820;2022-12-07T14:31:14;5.50;99.90
8872;DHT22;4472;52.092;9.820;2022-12-07T14:34:03;5.50;99.90
8872;DHT22;4472;52.092;9.820;2022-12-07T14:36:50;5.40;99.90
8872;DHT22;4472;52.092;9.820;2022-12-07T14:39:37;5.30;99.90
8872;DHT22;4472;52.092;9.820;2022-12-07T14:42:27;5.40;99.90
8872;DHT22;4472;52.092;9.820;2022-12-07T14:45:16;5.40;99.90
8872;DHT22;4472;52.092;9.820;2022-12-07T14:48:04;5.30;99.90
8872;DHT22;4472;52.092;9.820;2022-12-07T14:53:44;5.20;99.90
8872;DHT22;4472;52.092;9.820;2022-12-07T14:56:32;5.40;99.90
8872;DHT22;4472;52.092;9.820;2022-12-07T14:59:19;5.40;99.90
8872;DHT22;4472;52.092;9.820;2022-12-07T15:02:08;5.20;99.90
8872;DHT22;4472;52.092;9.820;2022-12-07T15:04:56;5.40;99.90
8872;DHT22;4472;52.092;9.820;2022-12-07T15:07:45;5.50;99.90
8872;DHT22;4472;52.092;9.820;2022-12-07T15:10:33;5.30;99.90
8872;DHT22;4472;52.092;9.820;2022-12-07T15:13:24;5.20;99.90
8872;DHT22;4472;52.092;9.820;2022-12-07T15:16:29;5.20;99.90
8872;DHT22;4472;52.092;9.820;2022-12-07T15:19:18;5.20;99.90
8872;DHT22;4472;52.092;9.820;2022-12-07T15:22:07;5.40;99.90
8872;DHT22;4472;52.092;9.820;2022-12-07T15:24:58;5.10;99.90
8872;DHT22;4472;52.092;9.820;2022-12-07T15:27:48;5.10;99.90
8872;DHT22;4472;52.092;9.820;2022-12-07T15:30:36;5.00;99.90
8872;DHT22;4472;52.092;9.820;2022-12-07T15:33:24;5.10;99.90
8872;DHT22;4472;52.092;9.820;2022-12-07T15:36:18;5.10;99.90
8872;DHT22;4472;52.092;9.820;2022-12-07T15:39:05;5.00;99.90
8872;DHT22;4472;52.092;9.820;2022-12-07T15:41:54;5.10;99.90
8872;DHT22;4472;52.092;9.820;2022-12-07T15:44:41;5.00;99.90
8872;DHT22;4472;52.092;9.820;2022-12-07T15:47:46;5.10;99.90
8872;DHT22;4472;52.092;9.820;2022-12-07T15:50:33;5.30;99.90
8872;DHT22;4472;52.092;9.820;2022-12-07T15:53:21;4.90;99.90
8872;DHT22;4472;52.092;9.820;2022-12-07T15:56:09;4.90;99.90
8872;DHT22;4472;52.092;9.820;2022-12-07T15:58:57;5.00;99.90
8872;DHT22;4472;52.092;9.820;2022-12-07T16:01:44;4.90;99.90
8872;DHT22;4472;52.092;9.820;2022-12-07T16:04:31;4.90;99.90
8872;DHT22;4472;52.092;9.820;2022-12-07T16:07:19;4.70;99.90
8872;DHT22;4472;52.092;9.820;2022-12-07T16:10:07;4.70;99.90
8872;DHT22;4472;52.092;9.820;2022-12-07T16:12:54;4.60;99.90
8872;DHT22;4472;52.092;9.820;2022-12-07T16:15:43;4.60;99.90
8872;DHT22;4472;52.092;9.820;2022-12-07T16:18:30;4.60;99.90
8872;DHT22;4472;52.092;9.820;2022-12-07T16:21:18;4.50;99.90
8872;DHT22;4472;52.092;9.820;2022-12-07T16:24:05;4.50;99.90
8872;DHT22;4472;52.092;9.820;2022-12-07T16:26:53;4.50;99.90
8872;DHT22;4472;52.092;9.820;2022-12-07T16:29:40;4.50;99.90
8872;DHT22;4472;52.092;9.820;2022-12-07T16:32:29;4.40;99.90
8872;DHT22;4472;52.092;9.820;2022-12-07T16:35:16;4.40;99.90
8872;DHT22;4472;52.092;9.820;2022-12-07T16:38:04;4.40;99.90
8872;DHT22;4472;52.092;9.820;2022-12-07T16:40:51;4.30;99.90
8872;DHT22;4472;52.092;9.820;2022-12-07T16:43:39;4.70;99.90
8872;DHT22;4472;52.092;9.820;2022-12-07T16:46:27;4.30;99.90
8872;DHT22;4472;52.092;9.820;2022-12-07T16:49:16;4.30;99.90
8872;DHT22;4472;52.092;9.820;2022-12-07T16:52:04;4.30;99.90
8872;DHT22;4472;52.092;9.820;2022-12-07T16:54:51;4.30;99.90
8872;DHT22;4472;52.092;9.820;2022-12-07T16:57:39;4.40;99.90
8872;DHT22;4472;52.092;9.820;2022-12-07T17:00:26;4.40;99.90
8872;DHT22;4472;52.092;9.820;2022-12-07T17:03:13;4.30;99.90
8872;DHT22;4472;52.092;9.820;2022-12-07T17:06:09;4.40;99.90
8872;DHT22;4472;52.092;9.820;2022-12-07T17:08:57;4.30;99.90
8872;DHT22;4472;52.092;9.820;2022-12-07T17:11:45;4.30;99.90
8872;DHT22;4472;52.092;9.820;2022-12-07T17:14:32;4.30;99.90
8872;DHT22;4472;52.092;9.820;2022-12-07T17:17:37;4.30;99.90
8872;DHT22;4472;52.092;9.820;2022-12-07T17:20:26;4.70;99.90
8872;DHT22;4472;52.092;9.820;2022-12-07T17:23:15;4.20;99.90
8872;DHT22;4472;52.092;9.820;2022-12-07T17:26:08;4.20;99.90
8872;DHT22;4472;52.092;9.820;2022-12-07T17:28:56;4.20;99.90
8872;DHT22;4472;52.092;9.820;2022-12-07T17:31:44;4.10;99.90
8872;DHT22;4472;52.092;9.820;2022-12-07T17:34:32;4.20;99.90
8872;DHT22;4472;52.092;9.820;2022-12-07T17:37:19;4.30;99.90
8872;DHT22;4472;52.092;9.820;2022-12-07T17:40:08;4.30;99.90
8872;DHT22;4472;52.092;9.820;2022-12-07T17:42:55;4.30;99.90
8872;DHT22;4472;52.092;9.820;2022-12-07T17:45:43;4.30;99.90
8872;DHT22;4472;52.092;9.820;2022-12-07T17:48:30;4.30;99.90
8872;DHT22;4472;52.092;9.820;2022-12-07T17:51:17;4.20;99.90
8872;DHT22;4472;52.092;9.820;2022-12-07T17:54:21;4.20;99.90
8872;DHT22;4472;52.092;9.820;2022-12-07T17:57:10;4.30;99.90
8872;DHT22;4472;52.092;9.820;2022-12-07T17:59:58;4.20;99.90
8872;DHT22;4472;52.092;9.820;2022-12-07T18:02:45;4.20;99.90
8872;DHT22;4472;52.092;9.820;2022-12-07T18:05:32;4.50;99.90
8872;DHT22;4472;52.092;9.820;2022-12-07T18:08:19;4.30;99.90
8872;DHT22;4472;52.092;9.820;2022-12-07T18:11:07;4.30;99.90
8872;DHT22;4472;52.092;9.820;2022-12-07T18:13:55;4.40;99.90
8872;DHT22;4472;52.092;9.820;2022-12-07T18:16:43;4.40;99.90
8872;DHT22;4472;52.092;9.820;2022-12-07T18:19:30;4.40;99.90
8872;DHT22;4472;52.092;9.820;2022-12-07T18:22:18;4.40;99.90
8872;DHT22;4472;52.092;9.820;2022-12-07T18:25:05;4.70;99.90
8872;DHT22;4472;52.092;9.820;2022-12-07T18:27:53;4.60;99.90
8872;DHT22;4472;52.092;9.820;2022-12-07T18:30:42;4.60;99.90
8872;DHT22;4472;52.092;9.820;2022-12-07T18:33:36;4.50;99.90
8872;DHT22;4472;52.092;9.820;2022-12-07T18:36:23;4.50;99.90
8872;DHT22;4472;52.092;9.820;2022-12-07T18:39:11;4.60;99.90
8872;DHT22;4472;52.092;9.820;2022-12-07T18:41:59;4.50;99.90
8872;DHT22;4472;52.092;9.820;2022-12-07T18:44:46;4.60;99.90
8872;DHT22;4472;52.092;9.820;2022-12-07T18:47:35;4.60;99.90
8872;DHT22;4472;52.092;9.820;2022-12-07T18:50:22;4.60;99.90
8872;DHT22;4472;52.092;9.820;2022-12-07T18:53:09;4.50;99.90
8872;DHT22;4472;52.092;9.820;2022-12-07T18:56:00;4.60;99.90
8872;DHT22;4472;52.092;9.820;2022-12-07T18:58:49;4.50;99.90
8872;DHT22;4472;52.092;9.820;2022-12-07T19:01:54;4.60;99.90
8872;DHT22;4472;52.092;9.820;2022-12-07T19:04:42;4.50;99.90
8872;DHT22;4472;52.092;9.820;2022-12-07T19:07:30;4.40;99.90
8872;DHT22;4472;52.092;9.820;2022-12-07T19:10:18;4.50;99.90